createdAt,value
2023-01-08T00:00:54.225Z,95401.00
2023-01-08T00:03:23.650Z,95399.72
2023-01-08T00:05:53.086Z,95402.16
2023-01-08T00:08:22.693Z,95392.56
2023-01-08T00:10:56.357Z,95396.28
2023-01-08T00:13:27.355Z,95391.41
2023-01-08T00:15:56.960Z,95395.66
2023-01-08T00:18:27.515Z,95390.63
2023-01-08T00:20:56.739Z,95387.34
2023-01-08T00:23:26.285Z,95390.13
2023-01-08T00:25:55.355Z,95392.25
2023-01-08T00:28:24.543Z,95385.25
2023-01-08T00:30:55.048Z,95388.50
2023-01-08T00:33:24.203Z,95383.28
2023-01-08T00:35:53.263Z,95386.22
2023-01-08T00:38:26.376Z,95384.91
2023-01-08T00:40:55.274Z,95389.97
2023-01-08T00:43:24.298Z,95392.25
2023-01-08T00:45:55.072Z,95386.53
2023-01-08T00:48:25.142Z,95391.75
2023-01-08T00:50:56.285Z,95390.94
2023-01-08T00:53:25.601Z,95385.72
2023-01-08T00:56:02.342Z,95388.50
2023-01-08T00:58:31.657Z,95397.16
2023-01-08T01:01:02.374Z,95390.31
2023-01-08T01:03:32.816Z,95398.13
2023-01-08T01:06:02.834Z,95393.38
2023-01-08T01:08:32.293Z,95403.16
2023-01-08T01:11:01.661Z,95401.19
2023-01-08T01:13:37.589Z,95403.81
2023-01-08T01:16:09.246Z,95394.03
2023-01-08T01:18:38.663Z,95390.78
2023-01-08T01:21:12.796Z,95396.81
2023-01-08T01:23:42.579Z,95394.03
2023-01-08T01:26:18.019Z,95388.16
2023-01-08T01:28:49.760Z,95395.03
2023-01-08T01:31:24.951Z,95394.34
2023-01-08T01:33:55.424Z,95385.56
2023-01-08T01:36:25.770Z,95382.16
2023-01-08T01:38:57.258Z,95375.63
2023-01-08T01:41:29.273Z,95378.41
2023-01-08T01:44:00.315Z,95374.19
2023-01-08T01:46:38.389Z,95378.88
2023-01-08T01:49:11.983Z,95372.22
2023-01-08T01:51:45.569Z,95381.34
2023-01-08T01:54:14.871Z,95382.00
2023-01-08T01:56:45.033Z,95376.13
2023-01-08T01:59:14.616Z,95374.50
2023-01-08T02:01:45.572Z,95379.53
2023-01-08T02:04:15.246Z,95379.69
2023-01-08T02:06:49.364Z,95368.00
2023-01-08T02:09:28.502Z,95371.72
2023-01-08T02:12:19.101Z,95367.50
2023-01-08T02:15:01.385Z,95368.28
2023-01-08T02:17:41.116Z,95364.03
2023-01-08T02:20:14.414Z,95361.44
2023-01-08T02:22:56.005Z,95361.28
2023-01-08T02:25:38.827Z,95355.41
2023-01-08T02:28:13.543Z,95355.41
2023-01-08T02:30:43.556Z,95360.78
2023-01-08T02:33:13.846Z,95363.22
2023-01-08T02:35:46.707Z,95363.53
2023-01-08T02:38:17.536Z,95358.50
2023-01-08T02:40:55.352Z,95357.34
2023-01-08T02:43:32.663Z,95351.63
2023-01-08T02:46:04.114Z,95361.72
2023-01-08T02:48:41.483Z,95355.88
2023-01-08T02:51:15.531Z,95359.31
2023-01-08T02:53:48.611Z,95351.84
2023-01-08T02:56:22.524Z,95358.47
2023-01-08T02:58:54.963Z,95345.78
2023-01-08T03:01:26.385Z,95345.31
2023-01-08T03:04:00.556Z,95344.66
2023-01-08T03:06:30.298Z,95347.09
2023-01-08T03:09:01.824Z,95340.09
2023-01-08T03:11:36.615Z,95338.94
2023-01-08T03:14:12.172Z,95331.94
2023-01-08T03:16:48.745Z,95341.53
2023-01-08T03:19:23.536Z,95340.09
2023-01-08T03:21:53.992Z,95348.53
2023-01-08T03:24:27.480Z,95347.25
2023-01-08T03:27:00.291Z,95345.63
2023-01-08T03:29:30.970Z,95340.91
2023-01-08T03:32:06.020Z,95344.81
2023-01-08T03:34:40.339Z,95342.88
2023-01-08T03:37:11.845Z,95343.03
2023-01-08T03:39:45.666Z,95342.72
2023-01-08T03:42:18.166Z,95350.63
2023-01-08T03:44:49.477Z,95341.03
2023-01-08T03:47:22.055Z,95342.66
2023-01-08T03:49:53.221Z,95337.81
2023-01-08T03:52:26.167Z,95334.03
2023-01-08T03:54:55.065Z,95340.84
2023-01-08T03:57:24.557Z,95337.59
2023-01-08T03:59:55.344Z,95344.56
2023-01-08T04:02:25.345Z,95340.03
2023-01-08T04:04:54.503Z,95345.88
2023-01-08T04:07:23.805Z,95343.72
2023-01-08T04:09:52.826Z,95349.69
2023-01-08T04:12:22.553Z,95343.22
2023-01-08T04:14:51.723Z,95350.75
2023-01-08T04:17:22.296Z,95347.97
2023-01-08T04:19:51.389Z,95344.22
2023-01-08T04:22:20.423Z,95349.69
2023-01-08T04:24:49.721Z,95348.94
2023-01-08T04:27:18.833Z,95351.59
2023-01-08T04:29:48.004Z,95348.31
2023-01-08T04:32:17.009Z,95352.94
2023-01-08T04:34:48.225Z,95345.81
2023-01-08T04:37:17.454Z,95348.41
2023-01-08T04:39:46.563Z,95347.75
2023-01-08T04:42:15.729Z,95344.63
2023-01-08T04:44:44.767Z,95343.00
2023-01-08T04:47:13.958Z,95345.94
2023-01-08T04:49:43.083Z,95344.63
2023-01-08T04:52:13.881Z,95341.53
2023-01-08T04:54:43.069Z,95343.63
2023-01-08T04:57:12.790Z,95338.44
2023-01-08T04:59:41.787Z,95348.00
2023-01-08T05:02:11.234Z,95353.53
2023-01-08T05:04:40.400Z,95350.63
2023-01-08T05:07:09.479Z,95353.38
2023-01-08T05:09:40.126Z,95355.69
2023-01-08T05:12:09.374Z,95360.38
2023-01-08T05:14:38.813Z,95347.06
2023-01-08T05:17:07.877Z,95353.19
2023-01-08T05:19:38.430Z,95350.94
2023-01-08T05:22:07.679Z,95355.22
2023-01-08T05:24:37.238Z,95357.88
2023-01-08T05:27:07.768Z,95353.19
2023-01-08T05:29:36.877Z,95354.56
2023-01-08T05:32:06.188Z,95351.81
2023-01-08T05:34:35.601Z,95357.41
2023-01-08T05:37:05.447Z,95364.34
2023-01-08T05:39:35.186Z,95367.72
2023-01-08T05:42:04.468Z,95361.31
2023-01-08T05:44:34.998Z,95354.34
2023-01-08T05:47:04.209Z,95357.53
2023-01-08T05:49:33.997Z,95353.22
2023-01-08T05:52:03.772Z,95353.00
2023-01-08T05:54:33.138Z,95352.31
2023-01-08T05:57:02.299Z,95364.44
2023-01-08T05:59:31.443Z,95361.69
2023-01-08T06:02:03.034Z,95357.31
2023-01-08T06:04:44.713Z,95359.66
2023-01-08T06:07:13.973Z,95364.50
2023-01-08T06:09:43.638Z,95364.56
2023-01-08T06:12:12.643Z,95359.66
2023-01-08T06:14:42.323Z,95359.16
2023-01-08T06:17:12.978Z,95363.19
2023-01-08T06:19:42.203Z,95367.03
2023-01-08T06:22:11.950Z,95367.00
2023-01-08T06:24:41.324Z,95370.97
2023-01-08T06:27:10.705Z,95384.91
2023-01-08T06:29:39.739Z,95380.66
2023-01-08T06:32:10.189Z,95391.41
2023-01-08T06:34:40.837Z,95381.25
2023-01-08T06:37:10.072Z,95384.94
2023-01-08T06:39:39.157Z,95393.06
2023-01-08T06:42:08.442Z,95390.94
2023-01-08T06:44:37.667Z,95396.84
2023-01-08T06:47:06.983Z,95386.97
2023-01-08T06:49:36.089Z,95394.44
2023-01-08T06:52:06.976Z,95392.06
2023-01-08T06:54:36.442Z,95393.56
2023-01-08T06:57:05.685Z,95400.06
2023-01-08T06:59:50.402Z,95399.16
2023-01-08T07:02:24.721Z,95406.31
2023-01-08T07:04:54.744Z,95406.84
2023-01-08T07:07:25.373Z,95408.97
2023-01-08T07:09:54.654Z,95406.00
2023-01-08T07:12:23.858Z,95400.34
2023-01-08T07:14:53.149Z,95409.47
2023-01-08T07:17:22.383Z,95418.78
2023-01-08T07:19:51.623Z,95412.78
2023-01-08T07:22:22.596Z,95416.84
2023-01-08T07:24:53.526Z,95417.81
2023-01-08T07:27:23.200Z,95413.56
2023-01-08T07:29:53.297Z,95414.69
2023-01-08T07:32:22.394Z,95413.41
2023-01-08T07:34:51.523Z,95421.72
2023-01-08T07:37:20.673Z,95414.59
2023-01-08T07:39:49.917Z,95415.88
2023-01-08T07:42:20.671Z,95422.66
2023-01-08T07:44:49.875Z,95427.31
2023-01-08T07:47:19.115Z,95419.16
2023-01-08T07:49:48.171Z,95422.53
2023-01-08T07:52:17.386Z,95426.53
2023-01-08T07:54:46.950Z,95429.09
2023-01-08T07:57:16.127Z,95433.22
2023-01-08T07:59:46.685Z,95435.53
2023-01-08T08:02:16.062Z,95443.13
2023-01-08T08:04:45.360Z,95447.50
2023-01-08T08:07:15.007Z,95452.31
2023-01-08T08:09:44.927Z,95448.81
2023-01-08T08:12:14.541Z,95448.34
2023-01-08T08:14:43.975Z,95449.72
2023-01-08T08:17:28.359Z,95443.31
2023-01-08T08:19:57.528Z,95442.34
2023-01-08T08:22:26.878Z,95446.81
2023-01-08T08:24:56.308Z,95445.19
2023-01-08T08:27:25.644Z,95433.97
2023-01-08T08:29:55.279Z,95433.88
2023-01-08T08:32:26.120Z,95439.13
2023-01-08T08:34:55.547Z,95436.69
2023-01-08T08:37:25.403Z,95445.97
2023-01-08T08:39:54.827Z,95449.53
2023-01-08T08:42:24.047Z,95448.34
2023-01-08T08:44:53.554Z,95439.63
2023-01-08T08:47:23.092Z,95444.78
2023-01-08T08:49:53.747Z,95447.28
2023-01-08T08:52:23.162Z,95444.81
2023-01-08T08:54:52.592Z,95447.81
2023-01-08T08:57:21.774Z,95439.31
2023-01-08T08:59:51.262Z,95439.03
2023-01-08T09:02:20.816Z,95443.22
2023-01-08T09:04:50.049Z,95438.28
2023-01-08T09:07:20.697Z,95431.31
2023-01-08T09:09:49.924Z,95432.22
2023-01-08T09:12:19.250Z,95426.56
2023-01-08T09:15:10.623Z,95434.16
2023-01-08T09:17:40.182Z,95431.28
2023-01-08T09:20:10.396Z,95431.69
2023-01-08T09:22:41.365Z,95433.63
2023-01-08T09:25:11.895Z,95431.25
2023-01-08T09:27:41.695Z,95427.69
2023-01-08T09:30:12.495Z,95428.41
2023-01-08T09:32:41.649Z,95424.19
2023-01-08T09:35:12.198Z,95410.88
2023-01-08T09:37:43.525Z,95406.03
2023-01-08T09:40:18.077Z,95408.25
2023-01-08T09:42:55.661Z,95413.44
2023-01-08T09:45:29.478Z,95398.41
2023-01-08T09:48:00.977Z,95395.03
2023-01-08T09:50:33.999Z,95397.97
2023-01-08T09:53:04.873Z,95388.59
2023-01-08T09:55:36.184Z,95381.47
2023-01-08T09:58:05.895Z,95370.38
2023-01-08T10:00:36.300Z,95365.88
2023-01-08T10:03:05.933Z,95363.81
2023-01-08T10:05:35.677Z,95366.81
2023-01-08T10:08:16.595Z,95364.34
2023-01-08T10:10:47.016Z,95363.75
2023-01-08T10:13:17.241Z,95358.88
2023-01-08T10:15:54.139Z,95349.03
2023-01-08T10:18:27.598Z,95342.19
2023-01-08T10:20:58.275Z,95341.31
2023-01-08T10:23:29.614Z,95340.28
2023-01-08T10:26:01.014Z,95335.34
2023-01-08T10:28:31.812Z,95335.81
2023-01-08T10:31:07.425Z,95329.13
2023-01-08T10:33:42.968Z,95321.97
2023-01-08T10:36:32.425Z,95314.94
2023-01-08T10:39:05.760Z,95319.53
2023-01-08T10:41:41.110Z,95307.88
2023-01-08T10:44:18.183Z,95305.13
2023-01-08T10:46:50.681Z,95301.81
2023-01-08T10:49:27.484Z,95304.44
2023-01-08T10:51:57.236Z,95303.97
2023-01-08T10:54:34.141Z,95294.03
2023-01-08T10:57:04.410Z,95291.97
2023-01-08T10:59:33.919Z,95294.47
2023-01-08T11:02:04.594Z,95282.38
2023-01-08T11:04:41.043Z,95295.66
2023-01-08T11:07:22.211Z,95280.13
2023-01-08T11:09:54.122Z,95277.50
2023-01-08T11:12:39.222Z,95272.97
2023-01-08T11:15:30.123Z,95275.84
2023-01-08T11:18:14.318Z,95274.78
2023-01-08T11:20:44.474Z,95273.91
2023-01-08T11:23:26.141Z,95274.34
2023-01-08T11:26:04.746Z,95270.81
2023-01-08T11:28:46.925Z,95266.25
2023-01-08T11:31:20.638Z,95258.19
2023-01-08T11:33:57.300Z,95252.53
2023-01-08T11:36:32.128Z,95261.66
2023-01-08T11:39:05.026Z,95249.47
2023-01-08T11:42:03.577Z,95239.50
2023-01-08T11:44:45.743Z,95240.75
2023-01-08T11:47:21.503Z,95232.81
2023-01-08T11:50:11.732Z,95230.59
2023-01-08T11:52:49.970Z,95222.66
2023-01-08T11:55:32.157Z,95226.72
2023-01-08T11:58:14.914Z,95214.78
2023-01-08T12:01:00.769Z,95216.50
2023-01-08T12:03:38.289Z,95214.91
2023-01-08T12:06:24.672Z,95209.19
2023-01-08T12:09:04.501Z,95215.06
2023-01-08T12:11:40.730Z,95210.97
2023-01-08T12:14:36.645Z,95206.75
2023-01-08T12:17:43.767Z,95206.84
2023-01-08T12:20:31.407Z,95200.97
2023-01-08T12:23:10.813Z,95198.66
2023-01-08T12:25:59.508Z,95192.41
2023-01-08T12:29:06.989Z,95194.88
2023-01-08T12:32:06.737Z,95196.75
2023-01-08T12:34:47.924Z,95192.56
2023-01-08T12:37:23.125Z,95184.56
2023-01-08T12:40:01.326Z,95192.44
2023-01-08T12:42:34.009Z,95175.81
2023-01-08T12:45:06.556Z,95171.81
2023-01-08T12:47:39.552Z,95183.47
2023-01-08T12:50:37.859Z,95171.97
2023-01-08T12:53:16.488Z,95165.09
2023-01-08T12:55:54.249Z,95170.19
2023-01-08T12:58:32.841Z,95154.28
2023-01-08T13:01:18.111Z,95174.25
2023-01-08T13:03:49.287Z,95168.25
2023-01-08T13:06:21.331Z,95167.25
2023-01-08T13:08:52.617Z,95165.84
2023-01-08T13:11:30.842Z,95166.19
2023-01-08T13:14:05.722Z,95169.19
2023-01-08T13:16:39.977Z,95165.09
2023-01-08T13:19:27.250Z,95167.19
2023-01-08T13:21:59.304Z,95157.66
2023-01-08T13:24:32.991Z,95169.69
2023-01-08T13:27:14.535Z,95165.25
2023-01-08T13:29:49.010Z,95171.38
2023-01-08T13:32:39.624Z,95160.09
2023-01-08T13:35:23.928Z,95158.72
2023-01-08T13:38:06.318Z,95159.06
2023-01-08T13:40:41.032Z,95158.69
2023-01-08T13:43:17.161Z,95160.94
2023-01-08T13:45:56.499Z,95160.03
2023-01-08T13:48:29.333Z,95158.63
2023-01-08T13:51:00.499Z,95155.06
2023-01-08T13:53:30.056Z,95164.91
2023-01-08T13:56:01.686Z,95160.69
2023-01-08T13:58:35.708Z,95158.19
2023-01-08T14:01:06.717Z,95159.09
2023-01-08T14:03:38.963Z,95156.81
2023-01-08T14:06:17.569Z,95158.22
2023-01-08T14:08:53.784Z,95151.53
2023-01-08T14:11:26.565Z,95150.75
2023-01-08T14:13:56.495Z,95151.53
2023-01-08T14:16:27.104Z,95155.19
2023-01-08T14:19:01.963Z,95146.25
2023-01-08T14:21:32.934Z,95149.34
2023-01-08T14:24:02.506Z,95141.75
2023-01-08T14:26:35.893Z,95143.06
2023-01-08T14:29:15.324Z,95142.25
2023-01-08T14:31:48.373Z,95139.81
2023-01-08T14:34:19.410Z,95142.97
2023-01-08T14:36:52.266Z,95142.25
2023-01-08T14:39:25.167Z,95135.56
2023-01-08T14:42:14.136Z,95137.09
2023-01-08T14:44:46.458Z,95128.69
2023-01-08T14:47:20.543Z,95125.50
2023-01-08T14:49:52.855Z,95118.53
2023-01-08T14:52:23.871Z,95117.81
2023-01-08T14:54:59.476Z,95120.88
2023-01-08T14:57:37.685Z,95125.03
2023-01-08T15:00:19.109Z,95122.81
2023-01-08T15:02:52.308Z,95121.56
2023-01-08T15:05:30.291Z,95120.56
2023-01-08T15:08:03.541Z,95127.38
2023-01-08T15:10:41.780Z,95129.75
2023-01-08T15:13:24.494Z,95131.00
2023-01-08T15:15:58.368Z,95128.19
2023-01-08T15:18:28.487Z,95123.50
2023-01-08T15:20:58.230Z,95130.09
2023-01-08T15:23:39.028Z,95121.66
2023-01-08T15:26:13.224Z,95122.09
2023-01-08T15:28:48.301Z,95123.81
2023-01-08T15:31:26.833Z,95113.44
2023-01-08T15:33:56.342Z,95102.91
2023-01-08T15:36:26.293Z,95122.22
2023-01-08T15:38:57.728Z,95114.38
2023-01-08T15:41:45.257Z,95114.84
2023-01-08T15:44:15.706Z,95115.09
2023-01-08T15:46:45.604Z,95119.34
2023-01-08T15:49:15.033Z,95107.44
2023-01-08T15:51:48.360Z,95104.63
2023-01-08T15:54:21.590Z,95110.53
2023-01-08T15:56:51.214Z,95102.28
2023-01-08T15:59:20.444Z,95102.91
2023-01-08T16:01:50.201Z,95106.56
2023-01-08T16:04:19.733Z,95105.16
2023-01-08T16:06:49.132Z,95104.56
2023-01-08T16:09:20.203Z,95103.75
2023-01-08T16:11:49.924Z,95097.28
2023-01-08T16:14:19.416Z,95101.13
2023-01-08T16:16:49.256Z,95113.06
2023-01-08T16:19:18.964Z,95112.41
2023-01-08T16:21:50.495Z,95109.16
2023-01-08T16:24:21.288Z,95104.53
2023-01-08T16:26:50.809Z,95103.50
2023-01-08T16:29:20.286Z,95102.06
2023-01-08T16:31:50.408Z,95105.72
2023-01-08T16:34:22.382Z,95095.38
2023-01-08T16:36:52.639Z,95102.00
2023-01-08T16:39:23.825Z,95110.81
2023-01-08T16:41:53.483Z,95107.25
2023-01-08T16:44:26.897Z,95101.53
2023-01-08T16:46:57.493Z,95107.75
2023-01-08T16:49:27.139Z,95107.91
2023-01-08T16:51:56.574Z,95111.31
2023-01-08T16:54:27.678Z,95111.50
2023-01-08T16:56:57.066Z,95120.56
2023-01-08T16:59:27.719Z,95123.09
2023-01-08T17:01:58.395Z,95122.66
2023-01-08T17:04:27.979Z,95124.34
2023-01-08T17:06:57.615Z,95130.50
2023-01-08T17:09:28.717Z,95130.50
2023-01-08T17:12:24.153Z,95133.03
2023-01-08T17:14:53.715Z,95135.81
2023-01-08T17:17:23.082Z,95127.41
2023-01-08T17:19:52.252Z,95134.03
2023-01-08T17:22:21.534Z,95132.25
2023-01-08T17:24:52.414Z,95133.88
2023-01-08T17:27:22.044Z,95142.41
2023-01-08T17:29:51.496Z,95144.41
2023-01-08T17:32:22.242Z,95148.00
2023-01-08T17:34:52.776Z,95146.03
2023-01-08T17:37:22.570Z,95151.94
2023-01-08T17:39:55.084Z,95160.81
2023-01-08T17:42:27.939Z,95151.09
2023-01-08T17:45:03.460Z,95156.63
2023-01-08T17:47:35.537Z,95157.50
2023-01-08T17:50:06.162Z,95150.19
2023-01-08T17:52:36.498Z,95157.69
2023-01-08T17:55:09.719Z,95162.34
2023-01-08T17:57:43.551Z,95162.81
2023-01-08T18:00:18.072Z,95160.50
2023-01-08T18:02:48.571Z,95160.16
2023-01-08T18:05:18.374Z,95159.34
2023-01-08T18:07:48.015Z,95170.25
2023-01-08T18:10:19.245Z,95174.84
2023-01-08T18:12:48.799Z,95169.97
2023-01-08T18:15:18.300Z,95173.00
2023-01-08T18:17:50.156Z,95178.25
2023-01-08T18:20:20.112Z,95180.84
2023-01-08T18:22:50.155Z,95171.75
2023-01-08T18:25:21.236Z,95179.09
2023-01-08T18:27:51.961Z,95180.41
2023-01-08T18:30:21.554Z,95180.06
2023-01-08T18:32:51.121Z,95179.91
2023-01-08T18:35:20.861Z,95178.81
2023-01-08T18:37:50.308Z,95189.25
2023-01-08T18:40:21.640Z,95181.59
2023-01-08T18:42:52.038Z,95187.56
2023-01-08T18:45:21.855Z,95186.38
2023-01-08T18:47:55.322Z,95192.59
2023-01-08T18:50:25.498Z,95193.19
2023-01-08T18:52:55.249Z,95195.63
2023-01-08T18:55:26.488Z,95198.59
2023-01-08T18:57:56.104Z,95204.00
2023-01-08T19:00:26.683Z,95212.72
2023-01-08T19:02:56.529Z,95213.06
2023-01-08T19:05:27.643Z,95212.91
2023-01-08T19:07:57.536Z,95216.75
2023-01-08T19:10:28.178Z,95219.19
2023-01-08T19:12:57.555Z,95220.06
2023-01-08T19:15:27.283Z,95217.72
2023-01-08T19:17:56.881Z,95218.94
2023-01-08T19:20:26.171Z,95217.66
2023-01-08T19:23:02.501Z,95214.28
2023-01-08T19:25:33.293Z,95212.75
2023-01-08T19:28:03.022Z,95211.75
2023-01-08T19:30:33.506Z,95224.50
2023-01-08T19:33:06.633Z,95222.88
2023-01-08T19:35:40.025Z,95223.09
2023-01-08T19:38:09.568Z,95226.56
2023-01-08T19:40:45.748Z,95211.69
2023-01-08T19:43:32.199Z,95220.25
2023-01-08T19:46:06.977Z,95217.97
2023-01-08T19:48:37.732Z,95220.09
2023-01-08T19:51:08.969Z,95219.84
2023-01-08T19:53:38.589Z,95224.47
2023-01-08T19:56:11.580Z,95222.31
2023-01-08T19:58:43.105Z,95225.88
2023-01-08T20:01:14.632Z,95230.03
2023-01-08T20:03:46.172Z,95232.94
2023-01-08T20:06:20.129Z,95240.94
2023-01-08T20:08:50.343Z,95241.09
2023-01-08T20:11:22.802Z,95238.16
2023-01-08T20:13:52.751Z,95240.56
2023-01-08T20:16:23.894Z,95243.06
2023-01-08T20:18:56.885Z,95241.66
2023-01-08T20:21:26.436Z,95237.50
2023-01-08T20:23:58.436Z,95243.72
2023-01-08T20:26:32.565Z,95240.94
2023-01-08T20:29:02.504Z,95245.44
2023-01-08T20:31:33.483Z,95247.41
2023-01-08T20:34:05.257Z,95239.97
2023-01-08T20:36:36.037Z,95241.94
2023-01-08T20:39:07.337Z,95241.19
2023-01-08T20:41:38.355Z,95239.53
2023-01-08T20:44:08.681Z,95230.47
2023-01-08T20:46:39.040Z,95239.03
2023-01-08T20:49:12.186Z,95239.84
2023-01-08T20:51:46.385Z,95236.91
2023-01-08T20:54:23.753Z,95239.53
2023-01-08T20:56:57.136Z,95235.16
2023-01-08T20:59:27.634Z,95234.31
2023-01-08T21:01:58.918Z,95242.13
2023-01-08T21:04:29.207Z,95249.09
2023-01-08T21:06:58.679Z,95248.94
2023-01-08T21:09:28.815Z,95241.66
2023-01-08T21:11:59.470Z,95246.00
2023-01-08T21:14:28.781Z,95250.94
2023-01-08T21:16:58.108Z,95251.00
2023-01-08T21:19:27.457Z,95261.66
2023-01-08T21:21:57.630Z,95252.53
2023-01-08T21:24:26.989Z,95247.31
2023-01-08T21:26:56.244Z,95253.63
2023-01-08T21:29:27.480Z,95255.28
2023-01-08T21:31:56.645Z,95249.75
2023-01-08T21:34:26.953Z,95254.53
2023-01-08T21:36:56.250Z,95250.91
2023-01-08T21:39:25.905Z,95250.63
2023-01-08T21:42:12.479Z,95245.44
2023-01-08T21:45:00.101Z,95250.00
2023-01-08T21:47:30.011Z,95249.31
2023-01-08T21:49:59.297Z,95251.47
2023-01-08T21:52:46.157Z,95247.41
2023-01-08T21:55:17.278Z,95242.22
2023-01-08T21:57:49.701Z,95247.94
2023-01-08T22:00:21.412Z,95250.50
2023-01-08T22:02:50.621Z,95243.34
2023-01-08T22:05:19.974Z,95244.16
2023-01-08T22:07:49.303Z,95235.06
2023-01-08T22:10:18.752Z,95243.34
2023-01-08T22:12:48.113Z,95242.03
2023-01-08T22:15:17.345Z,95240.94
2023-01-08T22:17:48.219Z,95236.56
2023-01-08T22:20:17.826Z,95232.59
2023-01-08T22:22:47.448Z,95237.34
2023-01-08T22:25:16.820Z,95245.34
2023-01-08T22:27:49.718Z,95233.63
2023-01-08T22:30:19.793Z,95232.84
2023-01-08T22:32:50.571Z,95231.34
2023-01-08T22:35:19.649Z,95226.78
2023-01-08T22:37:48.797Z,95227.94
2023-01-08T22:40:19.347Z,95226.06
2023-01-08T22:42:48.622Z,95223.41
2023-01-08T22:45:17.920Z,95217.03
2023-01-08T22:47:47.060Z,95210.56
2023-01-08T22:50:18.479Z,95220.19
2023-01-08T22:52:47.824Z,95224.38
2023-01-08T22:55:18.252Z,95223.28
2023-01-08T22:57:47.651Z,95227.00
2023-01-08T23:00:18.126Z,95220.34
2023-01-08T23:02:47.331Z,95217.59
2023-01-08T23:05:18.004Z,95212.38
2023-01-08T23:07:47.719Z,95214.50
2023-01-08T23:10:17.241Z,95214.81
2023-01-08T23:12:46.310Z,95215.16
2023-01-08T23:15:15.747Z,95213.38
2023-01-08T23:17:52.174Z,95211.91
2023-01-08T23:20:25.196Z,95203.44
2023-01-08T23:22:55.039Z,95203.28
2023-01-08T23:25:24.384Z,95203.94
2023-01-08T23:27:54.233Z,95201.78
2023-01-08T23:30:23.475Z,95200.69
2023-01-08T23:32:53.191Z,95197.91
2023-01-08T23:35:24.392Z,95197.41
2023-01-08T23:37:53.971Z,95203.63
2023-01-08T23:40:23.066Z,95205.06
2023-01-08T23:42:52.127Z,95194.53
2023-01-08T23:45:21.390Z,95194.53
2023-01-08T23:47:50.514Z,95183.44
2023-01-08T23:50:19.792Z,95181.50
2023-01-08T23:52:50.668Z,95190.28
2023-01-08T23:55:20.527Z,95180.50
2023-01-08T23:57:49.655Z,95186.72
